Time;durP1;ratioP1;P1;durP2;ratioP2;P2;SDS_P1;SDS_P2;PMS_P1;PMS_P2;Temp;Humidity;BMP_temperature;BMP_pressure;BME280_temperature;BME280_humidity;BME280_pressure;Samples;Min_cycle;Max_cycle;Signal;HPM_P1;HPM_P2
2022/06/09 00:01:57;;;;;;;5.00;3.50;;;;;;;16.53;69.60;99144.00;109259;1277;139331;-55
2022/06/09 00:04:34;;;;;;;9.60;2.90;;;;;;;16.50;69.40;99137.88;109229;1276;23446;-54
2022/06/09 00:07:03;;;;;;;4.60;3.30;;;;;;;16.46;69.46;99135.14;108976;1276;138541;-54
2022/06/09 00:09:31;;;;;;;8.70;4.00;;;;;;;16.46;69.57;99135.94;109142;1277;23312;-54
2022/06/09 00:11:58;;;;;;;5.80;3.00;;;;;;;16.44;69.58;99137.30;109137;1276;139407;-54
2022/06/09 00:14:25;;;;;;;6.40;2.90;;;;;;;16.41;69.59;99132.31;109158;1277;22565;-54
2022/06/09 00:16:52;;;;;;;8.70;2.60;;;;;;;16.39;69.66;99134.71;109271;1276;22565;-54
2022/06/09 00:19:18;;;;;;;5.70;2.70;;;;;;;16.38;69.85;99138.98;109209;1276;138157;-54
2022/06/09 00:21:45;;;;;;;4.40;3.00;;;;;;;16.36;70.03;99135.15;109296;1274;23315;-55
2022/06/09 00:24:12;;;;;;;3.30;2.90;;;;;;;16.34;70.14;99132.92;109029;1277;139617;-54
2022/06/09 00:26:39;;;;;;;11.60;3.00;;;;;;;16.32;70.15;99135.16;109317;1276;22520;-55
2022/06/09 00:29:06;;;;;;;3.90;2.40;;;;;;;16.30;70.29;99130.32;109353;1276;22438;-55
2022/06/09 00:31:33;;;;;;;4.80;3.00;;;;;;;16.30;70.65;99132.69;108987;1277;139209;-55
2022/06/09 00:34:00;;;;;;;5.40;2.50;;;;;;;16.32;70.63;99131.77;109082;1277;23429;-54
2022/06/09 00:36:27;;;;;;;5.80;3.20;;;;;;;16.32;70.58;99134.29;109256;1276;140053;-55
2022/06/09 00:39:00;;;;;;;7.00;2.90;;;;;;;16.29;70.48;99130.23;109356;1277;22435;-55
2022/06/09 00:41:27;;;;;;;7.10;3.20;;;;;;;16.26;70.53;99131.02;109294;1276;23253;-55
2022/06/09 00:44:14;;;;;;;6.80;2.80;;;;;;;16.25;70.84;99130.80;109276;1276;138943;-55
2022/06/09 00:46:41;;;;;;;10.60;3.20;;;;;;;16.24;70.76;99130.71;109084;1278;22445;-55
2022/06/09 00:49:17;;;;;;;10.70;2.90;;;;;;;16.21;70.65;99128.23;109126;1277;139191;-55
2022/06/09 00:51:46;;;;;;;4.60;2.80;;;;;;;16.17;70.76;99126.39;109307;1276;22459;-55
2022/06/09 00:54:27;;;;;;;6.30;3.00;;;;;;;16.13;70.76;99126.22;109029;1276;140172;-55
2022/06/09 00:56:59;;;;;;;5.10;3.00;;;;;;;16.09;70.91;99125.23;109272;1277;23186;-55
2022/06/09 00:59:26;;;;;;;5.70;3.10;;;;;;;16.07;70.94;99124.89;109214;1276;22516;-55
2022/06/09 01:01:54;;;;;;;8.30;3.00;;;;;;;16.04;70.98;99123.77;109112;1276;139185;-55
2022/06/09 01:04:21;;;;;;;3.50;2.90;;;;;;;16.02;71.09;99129.31;109053;1278;22443;-55
2022/06/09 01:06:50;;;;;;;8.00;3.20;;;;;;;16.00;71.06;99131.35;109164;1276;139265;-55
2022/06/09 01:09:19;;;;;;;3.80;3.00;;;;;;;16.00;70.31;99135.41;109234;1276;22679;-55
2022/06/09 01:11:50;;;;;;;4.40;3.30;;;;;;;16.08;69.24;99131.29;109224;1276;23319;-55
2022/06/09 01:14:19;;;;;;;10.10;3.70;;;;;;;16.26;67.92;99137.00;109277;1277;22433;-55
2022/06/09 01:17:11;;;;;;;7.60;3.90;;;;;;;16.50;66.94;99135.59;109165;1276;23061;-55
2022/06/09 01:19:54;;;;;;;6.10;3.70;;;;;;;16.76;66.36;99129.78;109116;1276;137311;-55
2022/06/09 01:22:21;;;;;;;4.40;3.20;;;;;;;16.91;66.22;99130.38;109200;1277;22512;-55
2022/06/09 01:24:59;;;;;;;7.20;3.60;;;;;;;16.98;65.83;99135.48;109176;1276;138294;-55
2022/06/09 01:27:31;;;;;;;6.30;3.90;;;;;;;17.07;64.99;99138.30;109232;1276;22473;-55
2022/06/09 01:30:09;;;;;;;6.40;3.50;;;;;;;17.18;64.82;99134.61;109184;1276;138644;-55
2022/06/09 01:32:39;;;;;;;4.80;3.40;;;;;;;17.27;65.02;99134.90;109125;1276;22619;-55
2022/06/09 01:35:26;;;;;;;7.20;3.60;;;;;;;17.29;65.21;99135.24;109113;1276;23262;-55
2022/06/09 01:37:57;;;;;;;8.40;4.70;;;;;;;17.28;65.45;99136.55;109173;1276;137325;-56
2022/06/09 01:40:24;;;;;;;8.90;4.30;;;;;;;17.26;65.47;99136.91;109293;1276;22459;-55
2022/06/09 01:42:54;;;;;;;7.00;3.80;;;;;;;17.23;65.82;99136.15;109152;1277;138242;-55
2022/06/09 01:45:31;;;;;;;5.60;4.20;;;;;;;17.21;66.01;99136.90;109373;1276;23114;-55
2022/06/09 01:48:12;;;;;;;4.80;3.40;;;;;;;17.21;65.98;99138.13;109202;1276;137891;-55
2022/06/09 01:50:50;;;;;;;7.80;3.60;;;;;;;17.19;66.53;99132.84;109242;1275;22429;-55
2022/06/09 01:53:56;;;;;;;8.50;4.10;;;;;;;17.17;66.49;99136.96;109171;1276;22591;-55
2022/06/09 01:56:32;;;;;;;6.80;4.00;;;;;;;17.20;65.68;99136.60;109118;1278;22503;-55
2022/06/09 01:59:01;;;;;;;8.40;4.50;;;;;;;17.29;65.20;99134.13;109340;1276;22494;-55
2022/06/09 02:01:31;;;;;;;8.00;4.10;;;;;;;17.41;64.85;99138.91;109135;1277;138336;-55
2022/06/09 02:03:59;;;;;;;8.60;4.50;;;;;;;17.53;64.62;99137.09;109274;1277;23368;-55
2022/06/09 02:06:26;;;;;;;5.60;4.00;;;;;;;17.60;64.72;99135.27;109148;1276;138577;-55
2022/06/09 02:08:53;;;;;;;5.80;4.40;;;;;;;17.62;64.82;99142.63;109340;1276;23453;-55
2022/06/09 02:11:20;;;;;;;9.10;4.00;;;;;;;17.62;64.99;99141.04;109202;1277;22563;-55
2022/06/09 02:13:48;;;;;;;5.80;4.10;;;;;;;17.59;64.50;99144.77;109038;1277;138104;-55
2022/06/09 02:16:17;;;;;;;6.30;4.10;;;;;;;17.60;64.38;99143.15;109283;1277;22634;-55
2022/06/09 02:18:47;;;;;;;8.90;4.20;;;;;;;17.62;63.78;99141.76;109074;1276;137814;-55
2022/06/09 02:21:24;;;;;;;7.80;4.20;;;;;;;17.67;63.27;99143.88;109259;1276;22477;-55
2022/06/09 02:23:52;;;;;;;7.00;3.60;;;;;;;17.74;62.81;99142.95;109168;1276;139323;-55
2022/06/09 02:26:19;;;;;;;6.10;3.80;;;;;;;17.80;62.43;99142.98;109154;1277;22482;-55
2022/06/09 02:28:47;;;;;;;5.40;3.70;;;;;;;17.87;62.16;99142.48;109377;1276;22453;-55
2022/06/09 02:31:14;;;;;;;6.00;3.60;;;;;;;17.93;61.97;99145.45;109110;1276;137491;-55
2022/06/09 02:33:41;;;;;;;6.50;3.40;;;;;;;17.98;62.33;99145.89;109311;1276;23582;-55
2022/06/09 02:36:08;;;;;;;6.30;3.50;;;;;;;17.99;63.20;99152.15;109223;1276;137711;-54
2022/06/09 02:38:35;;;;;;;5.70;3.70;;;;;;;17.95;63.72;99154.67;109373;1275;22499;-54
2022/06/09 02:41:02;;;;;;;7.70;3.80;;;;;;;17.89;64.28;99159.80;109226;1276;23335;-54
2022/06/09 02:43:29;;;;;;;8.10;3.80;;;;;;;17.84;64.23;99164.23;109242;1277;138384;-54
2022/06/09 02:45:56;;;;;;;5.70;3.90;;;;;;;17.81;64.63;99168.38;109063;1277;22462;-54
2022/06/09 02:48:23;;;;;;;4.20;3.00;;;;;;;17.78;65.33;99171.03;109140;1277;138523;-56
2022/06/09 02:50:52;;;;;;;6.30;3.90;;;;;;;17.74;65.65;99170.75;109360;1275;22500;-55
2022/06/09 02:53:20;;;;;;;7.20;3.90;;;;;;;17.73;65.65;99168.66;109302;1276;22477;-55
2022/06/09 02:55:47;;;;;;;9.60;3.70;;;;;;;17.74;65.84;99166.69;109002;1277;139160;-55
2022/06/09 02:58:13;;;;;;;5.70;3.60;;;;;;;17.75;65.49;99164.59;109278;1277;23523;-55
2022/06/09 03:00:40;;;;;;;5.80;3.20;;;;;;;17.79;64.67;99164.95;109175;1276;138710;-55
2022/06/09 03:03:11;;;;;;;5.40;2.90;;;;;;;17.87;63.83;99165.76;109337;1276;22474;-55
2022/06/09 03:05:38;;;;;;;9.40;3.10;;;;;;;17.97;64.19;99169.52;109095;1277;22853;-55
2022/06/09 03:08:08;;;;;;;7.70;3.20;;;;;;;18.06;64.78;99169.78;109163;1277;138896;-55
2022/06/09 03:10:35;;;;;;;6.20;3.20;;;;;;;18.12;65.10;99167.75;109267;1276;22474;-55
2022/06/09 03:13:02;;;;;;;6.00;3.10;;;;;;;18.17;65.58;99168.05;109173;1277;137429;-55
2022/06/09 03:15:30;;;;;;;5.40;3.50;;;;;;;18.23;65.45;99173.73;109300;1277;23108;-56
2022/06/09 03:17:56;;;;;;;6.10;3.90;;;;;;;18.27;65.94;99174.00;109177;1276;139612;-55
2022/06/09 03:20:25;;;;;;;5.60;3.30;;;;;;;18.33;66.68;99175.21;109207;1277;22533;-55
2022/06/09 03:22:52;;;;;;;5.00;3.10;;;;;;;18.38;67.19;99172.65;109310;1275;22440;-55
2022/06/09 03:25:19;;;;;;;5.40;3.80;;;;;;;18.44;67.13;99169.36;109219;1274;138002;-55
2022/06/09 03:27:47;;;;;;;3.20;2.90;;;;;;;18.50;66.78;99167.95;109025;1278;22477;-55
2022/06/09 03:30:14;;;;;;;3.00;2.60;;;;;;;18.57;65.73;99170.77;109253;1276;138596;-55
2022/06/09 03:32:41;;;;;;;6.00;3.10;;;;;;;18.65;66.13;99173.69;109325;1276;22249;-55
2022/06/09 03:35:08;;;;;;;6.60;3.00;;;;;;;18.75;65.85;99171.93;109334;1277;22616;-55
2022/06/09 03:37:35;;;;;;;8.70;2.90;;;;;;;18.84;65.42;99169.46;109123;1277;138726;-55
2022/06/09 03:40:03;;;;;;;6.90;2.90;;;;;;;18.93;65.81;99164.88;109277;1276;22475;-55
2022/06/09 03:42:30;;;;;;;5.00;2.90;;;;;;;19.03;64.71;99162.88;109099;1277;137532;-55
2022/06/09 03:44:57;;;;;;;6.60;2.90;;;;;;;19.13;64.42;99164.33;109324;1276;23523;-55
2022/06/09 03:47:24;;;;;;;3.60;2.70;;;;;;;19.23;64.69;99161.40;109356;1276;22431;-55
2022/06/09 03:49:51;;;;;;;3.40;2.90;;;;;;;19.32;64.35;99160.08;109145;1277;137549;-54
2022/06/09 03:52:18;;;;;;;6.50;3.10;;;;;;;19.40;64.23;99160.08;109263;1277;22702;-54
2022/06/09 03:54:44;;;;;;;4.50;3.30;;;;;;;19.48;63.47;99159.86;109257;1277;138491;-55
2022/06/09 03:57:11;;;;;;;6.00;3.40;;;;;;;19.54;62.55;99155.41;109303;1277;22499;-54
2022/06/09 03:59:38;;;;;;;6.60;3.60;;;;;;;19.62;62.31;99158.94;109369;1276;22566;-55
2022/06/09 04:02:08;;;;;;;9.50;4.50;;;;;;;19.69;62.45;99155.64;109152;1277;138351;-55
2022/06/09 04:04:35;;;;;;;6.40;3.40;;;;;;;19.76;61.96;99154.52;109211;1277;22439;-55
2022/06/09 04:07:02;;;;;;;9.40;3.80;;;;;;;19.83;61.21;99154.48;109182;1276;139161;-56
2022/06/09 04:09:29;;;;;;;7.40;3.10;;;;;;;19.88;61.45;99151.33;109273;1276;24301;-55
2022/06/09 04:11:56;;;;;;;14.10;4.10;;;;;;;19.94;60.95;99151.48;109228;1276;138544;-55
2022/06/09 04:14:23;;;;;;;9.40;3.80;;;;;;;19.99;61.33;99146.84;109273;1276;23352;-55
2022/06/09 04:16:54;;;;;;;14.30;3.50;;;;;;;20.04;61.76;99145.95;109305;1277;22475;-54
2022/06/09 04:19:22;;;;;;;7.00;4.10;;;;;;;20.10;61.67;99146.19;109175;1277;138082;-54
2022/06/09 04:21:49;;;;;;;7.10;3.60;;;;;;;20.14;61.79;99144.33;109276;1277;23256;-54
2022/06/09 04:24:16;;;;;;;4.50;3.00;;;;;;;20.18;61.85;99140.47;109181;1276;139449;-54
2022/06/09 04:26:43;;;;;;;6.00;3.50;;;;;;;20.22;61.26;99137.45;109359;1275;23375;-54
2022/06/09 04:29:13;;;;;;;6.50;3.80;;;;;;;20.26;60.66;99136.81;109265;1276;22528;-54
2022/06/09 04:31:41;;;;;;;5.30;2.80;;;;;;;20.30;60.94;99137.23;109114;1277;138239;-54
2022/06/09 04:34:08;;;;;;;5.00;3.00;;;;;;;20.33;60.49;99135.73;109217;1277;22463;-54
2022/06/09 04:36:35;;;;;;;6.70;3.60;;;;;;;20.37;60.10;99136.38;109150;1277;138492;-54
2022/06/09 04:39:02;;;;;;;8.50;4.20;;;;;;;20.42;60.14;99137.05;109235;1277;22453;-55
2022/06/09 04:41:29;;;;;;;7.30;3.90;;;;;;;20.45;60.10;99134.99;109247;1277;22230;-54
2022/06/09 04:43:57;;;;;;;9.90;3.20;;;;;;;20.50;59.96;99137.44;109123;1277;137420;-54
2022/06/09 04:46:24;;;;;;;5.00;3.70;;;;;;;20.53;59.56;99138.16;109302;1275;22448;-54
2022/06/09 04:48:51;;;;;;;15.10;4.00;;;;;;;20.58;59.33;99136.69;109209;1276;137367;-54
2022/06/09 04:51:19;;;;;;;22.70;4.20;;;;;;;20.63;58.90;99138.55;108955;1276;339777;-56
2022/06/09 04:55:51;;;;;;;9.80;2.90;;;;;;;20.75;58.61;99141.25;101654;1309;545339;-54
2022/06/09 04:58:18;;;;;;;6.20;3.10;;;;;;;20.78;57.67;99142.57;104033;1287;24148;-55
2022/06/09 05:00:45;;;;;;;9.00;3.00;;;;;;;20.84;57.35;99139.34;104001;1287;137891;-54
2022/06/09 05:03:12;;;;;;;8.50;3.70;;;;;;;20.92;57.80;99139.41;104042;1287;22624;-54
2022/06/09 05:05:43;;;;;;;6.60;3.10;;;;;;;21.00;57.19;99137.25;104106;1287;25557;-54
2022/06/09 05:08:13;;;;;;;9.40;3.20;;;;;;;21.11;57.48;99138.80;103709;1289;137680;-55
2022/06/09 05:10:41;;;;;;;13.00;3.10;;;;;;;21.23;57.51;99136.13;100362;1286;5037894;-55
2022/06/09 05:13:09;;;;;;;4.60;3.00;;;;;;;21.40;56.71;99137.73;103982;1286;139721;-55
2022/06/09 05:15:38;;;;;;;11.50;3.70;;;;;;;21.65;56.10;99137.54;108428;1284;22454;-55
2022/06/09 05:18:05;;;;;;;9.90;3.60;;;;;;;21.97;55.66;99133.70;108328;1283;138176;-56
2022/06/09 05:20:32;;;;;;;9.70;3.60;;;;;;;22.36;54.19;99135.29;108367;1284;22448;-56
2022/06/09 05:22:59;;;;;;;14.30;3.50;;;;;;;22.81;52.47;99134.80;108480;1283;23195;-56
2022/06/09 05:25:25;;;;;;;17.70;3.30;;;;;;;23.33;51.85;99128.40;108404;1283;137660;-56
2022/06/09 05:27:52;;;;;;;5.80;3.00;;;;;;;23.87;50.85;99127.68;108408;1285;23275;-56
2022/06/09 05:30:21;;;;;;;6.70;2.80;;;;;;;24.50;49.81;99124.31;108422;1284;138130;-54
2022/06/09 05:32:48;;;;;;;6.70;2.60;;;;;;;25.13;48.66;99128.55;108525;1284;22550;-55
2022/06/09 05:35:15;;;;;;;7.00;3.10;;;;;;;25.74;46.82;99125.80;108331;1284;22733;-55
2022/06/09 05:46:00;;;;;;;3.50;2.70;;;;;;;27.78;41.66;99125.25;104070;1286;22560;-55
2022/06/09 05:48:27;;;;;;;4.10;2.90;;;;;;;28.11;40.77;99123.38;104002;1286;137311;-54
2022/06/09 05:50:54;;;;;;;11.30;3.20;;;;;;;28.39;39.79;99122.39;104111;1286;27538;-55
2022/06/09 05:53:21;;;;;;;6.40;2.70;;;;;;;28.57;38.39;99127.83;104032;1286;22571;-56
2022/06/09 05:55:48;;;;;;;5.00;1.80;;;;;;;28.67;35.86;99124.72;104058;1285;138333;-54
2022/06/09 05:58:15;;;;;;;2.80;1.70;;;;;;;28.71;35.49;99123.77;104153;1287;24211;-55
2022/06/09 06:00:42;;;;;;;5.70;2.00;;;;;;;28.69;35.41;99125.61;103961;1285;138630;-55
2022/06/09 06:03:12;;;;;;;9.60;2.60;;;;;;;28.60;36.11;99128.73;108326;1284;22514;-55
2022/06/09 06:08:25;;;;;;;7.20;1.90;;;;;;;28.35;35.08;99130.20;109367;1274;22463;-53
2022/06/09 06:10:53;;;;;;;5.10;2.10;;;;;;;28.28;35.60;99134.63;109414;1274;22444;-55
2022/06/09 06:13:20;;;;;;;9.30;2.00;;;;;;;28.18;35.77;99136.89;109392;1274;137884;-57
2022/06/09 06:15:46;;;;;;;3.70;1.80;;;;;;;28.05;35.92;99138.83;108302;1272;22774;-55
2022/06/09 06:18:13;;;;;;;4.60;2.10;;;;;;;27.90;36.29;99141.64;105055;1274;137222;-55
2022/06/09 06:20:40;;;;;;;3.90;2.00;;;;;;;27.72;36.07;99138.88;105136;1274;25735;-54
2022/06/09 06:23:07;;;;;;;4.90;2.20;;;;;;;27.57;36.06;99140.99;105139;1274;24399;-55
2022/06/09 06:25:35;;;;;;;3.90;2.10;;;;;;;27.46;36.13;99140.59;104999;1274;137465;-56
2022/06/09 06:28:01;;;;;;;7.00;2.30;;;;;;;27.36;36.17;99139.41;105246;1274;22587;-55
2022/06/09 06:30:28;;;;;;;6.00;2.40;;;;;;;27.24;36.08;99139.65;105064;1274;138283;-56
2022/06/09 06:32:55;;;;;;;4.30;2.40;;;;;;;27.11;36.44;99135.55;105084;1274;24140;-55
2022/06/09 06:35:22;;;;;;;5.30;2.00;;;;;;;27.04;36.92;99141.37;105061;1273;25216;-54
2022/06/09 06:37:49;;;;;;;7.80;2.40;;;;;;;26.98;36.87;99138.55;104989;1274;137275;-54
2022/06/09 06:40:16;;;;;;;4.10;1.90;;;;;;;26.96;37.12;99137.91;105122;1274;22737;-56
2022/06/09 06:42:43;;;;;;;6.60;2.00;;;;;;;26.92;36.51;99134.45;109402;1274;137194;-56
2022/06/09 06:45:11;;;;;;;4.80;2.30;;;;;;;26.85;36.70;99135.68;109507;1273;22477;-56
2022/06/09 06:47:41;;;;;;;11.70;2.80;;;;;;;26.80;36.88;99134.75;105135;1274;24264;-55
2022/06/09 06:50:08;;;;;;;7.00;2.00;;;;;;;26.75;36.45;99133.77;105010;1274;136981;-55
2022/06/09 06:52:35;;;;;;;10.30;1.90;;;;;;;26.67;37.43;99138.13;105115;1274;22560;-56
2022/06/09 06:55:04;;;;;;;4.50;1.80;;;;;;;26.64;37.70;99136.56;105018;1274;138212;-55
2022/06/09 06:57:31;;;;;;;4.60;2.20;;;;;;;26.62;37.76;99137.64;109444;1273;22440;-56
2022/06/09 06:59:58;;;;;;;5.80;1.90;;;;;;;26.58;37.33;99135.48;109236;1274;137626;-56
2022/06/09 07:02:25;;;;;;;6.30;2.10;;;;;;;26.51;37.08;99136.35;109410;1274;22539;-56
2022/06/09 07:05:12;;;;;;;3.70;1.90;;;;;;;26.51;37.19;99133.55;109480;1274;23643;-56
2022/06/09 07:07:39;;;;;;;3.20;2.20;;;;;;;26.56;37.12;99134.50;109397;1274;137028;-56
2022/06/09 07:10:06;;;;;;;5.70;2.60;;;;;;;26.62;37.16;99134.12;109517;1274;22529;-54
2022/06/09 07:12:33;;;;;;;3.50;1.80;;;;;;;26.68;37.32;99133.44;109361;1274;138619;-56
2022/06/09 07:15:00;;;;;;;4.00;1.70;;;;;;;26.77;36.80;99129.66;109428;1274;22465;-56
2022/06/09 07:17:26;;;;;;;9.00;2.40;;;;;;;26.85;37.03;99132.57;109518;1273;22207;-56
2022/06/09 07:19:53;;;;;;;2.90;1.70;;;;;;;26.94;36.98;99142.89;109320;1274;137365;-56
2022/06/09 07:22:20;;;;;;;2.90;1.80;;;;;;;27.03;36.65;99138.46;109413;1274;23628;-56
2022/06/09 07:24:47;;;;;;;5.20;1.90;;;;;;;27.10;35.78;99137.55;109396;1274;137035;-56
2022/06/09 07:27:14;;;;;;;3.60;2.10;;;;;;;27.15;36.08;99137.59;109472;1274;22422;-56
2022/06/09 07:29:41;;;;;;;2.90;1.80;;;;;;;27.16;37.03;99137.37;109472;1274;22375;-56
2022/06/09 07:32:08;;;;;;;2.60;1.90;;;;;;;27.17;36.55;99142.66;109314;1274;137526;-57
2022/06/09 07:34:35;;;;;;;10.90;2.20;;;;;;;27.20;35.34;99145.91;109500;1274;22472;-57
2022/06/09 07:37:03;;;;;;;8.90;2.70;;;;;;;27.24;35.90;99150.70;109392;1274;137862;-57
2022/06/09 07:39:30;;;;;;;10.80;2.20;;;;;;;27.26;35.35;99147.20;109483;1274;22474;-57
2022/06/09 07:41:57;;;;;;;10.60;2.10;;;;;;;27.27;34.89;99146.96;109369;1273;137679;-56
2022/06/09 07:44:23;;;;;;;2.80;1.80;;;;;;;27.30;34.96;99149.80;109461;1272;22476;-56
2022/06/09 07:46:51;;;;;;;5.20;1.80;;;;;;;27.34;35.40;99149.69;109486;1274;22592;-56
2022/06/09 07:49:18;;;;;;;11.40;2.60;;;;;;;27.35;35.55;99150.05;109339;1274;137277;-56
2022/06/09 07:51:44;;;;;;;2.40;1.60;;;;;;;27.35;35.67;99151.80;109380;1274;23346;-56
2022/06/09 07:54:13;;;;;;;4.30;1.80;;;;;;;27.34;36.14;99150.25;109414;1274;137434;-56
2022/06/09 07:56:40;;;;;;;3.90;2.10;;;;;;;27.31;36.53;99145.83;109471;1272;23270;-56
2022/06/09 07:59:07;;;;;;;5.20;2.00;;;;;;;27.35;35.78;99146.36;109542;1273;22269;-56
2022/06/09 08:01:34;;;;;;;4.10;2.50;;;;;;;27.34;36.10;99143.79;109383;1274;137856;-56
2022/06/09 08:04:01;;;;;;;2.30;2.00;;;;;;;27.37;36.15;99147.98;109468;1274;22407;-56
2022/06/09 08:06:28;;;;;;;5.00;1.80;;;;;;;27.42;36.20;99152.13;109391;1274;137293;-56
2022/06/09 08:08:57;;;;;;;4.40;2.20;;;;;;;27.46;35.98;99148.81;109511;1273;22499;-56
2022/06/09 08:11:30;;;;;;;3.70;1.70;;;;;;;27.50;35.48;99155.19;109432;1274;22442;-56
2022/06/09 08:13:58;;;;;;;2.30;1.50;;;;;;;27.51;34.40;99150.98;109282;1274;137991;-56
2022/06/09 08:16:25;;;;;;;3.30;1.30;;;;;;;27.51;34.04;99150.41;109425;1274;22622;-56
2022/06/09 08:18:52;;;;;;;4.40;1.90;;;;;;;27.52;33.47;99150.27;109416;1274;137291;-56
2022/06/09 08:21:19;;;;;;;7.90;2.40;;;;;;;27.53;33.42;99153.88;109539;1274;22464;-56
2022/06/09 08:24:04;;;;;;;4.80;2.70;;;;;;;27.56;33.02;99158.08;109411;1274;137358;-56
2022/06/09 08:26:31;;;;;;;6.50;1.80;;;;;;;27.58;33.20;99149.63;109510;1274;22544;-56
2022/06/09 08:28:58;;;;;;;3.50;1.30;;;;;;;27.60;33.21;99157.60;109498;1274;22443;-56
2022/06/09 08:31:25;;;;;;;1.70;1.50;;;;;;;27.62;33.13;99152.02;109252;1274;137982;-56
2022/06/09 08:33:52;;;;;;;5.30;1.60;;;;;;;27.65;32.55;99151.52;109409;1274;22532;-56
2022/06/09 08:36:18;;;;;;;5.20;2.40;;;;;;;27.68;32.61;99149.70;109429;1274;137269;-56
2022/06/09 08:38:46;;;;;;;3.80;1.90;;;;;;;27.71;32.75;99149.80;109423;1274;22442;-56
2022/06/09 08:41:52;;;;;;;3.50;1.90;;;;;;;27.75;32.57;99151.37;109399;1274;22451;-56
2022/06/09 08:44:48;;;;;;;3.40;1.60;;;;;;;27.78;31.68;99146.70;109367;1274;22611;-56
2022/06/09 08:47:24;;;;;;;2.80;2.00;;;;;;;27.79;31.45;99143.03;109307;1274;23124;-56
2022/06/09 08:50:05;;;;;;;3.80;1.30;;;;;;;27.78;31.96;99144.30;109268;1274;138129;-56
2022/06/09 08:52:44;;;;;;;12.40;2.20;;;;;;;27.76;32.48;99142.12;109366;1274;23587;-56
2022/06/09 08:55:45;;;;;;;3.40;1.70;;;;;;;27.78;31.54;99141.02;109338;1274;137554;-56
2022/06/09 08:58:41;;;;;;;5.80;2.00;;;;;;;27.79;31.77;99140.46;109418;1274;22456;-56
2022/06/09 09:01:10;;;;;;;2.20;1.50;;;;;;;27.81;32.28;99138.98;109397;1273;137679;-56
2022/06/09 09:03:49;;;;;;;9.00;2.10;;;;;;;27.85;31.88;99136.04;109482;1274;23187;-57
2022/06/09 09:06:19;;;;;;;3.00;1.90;;;;;;;27.86;31.84;99137.09;109377;1274;137519;-57
2022/06/09 09:09:22;;;;;;;11.30;2.10;;;;;;;27.86;32.35;99136.85;109285;1274;23267;-57
2022/06/09 09:12:05;;;;;;;2.30;1.80;;;;;;;27.86;32.83;99131.33;109351;1274;138532;-58
2022/06/09 09:14:36;;;;;;;5.10;1.90;;;;;;;27.88;32.62;99136.48;109440;1274;23042;-57
2022/06/09 09:17:25;;;;;;;5.00;1.90;;;;;;;27.92;32.64;99138.85;109399;1274;22424;-57
2022/06/09 09:20:02;;;;;;;55.90;7.80;;;;;;;27.97;32.07;99140.52;109322;1274;138190;-56
2022/06/09 09:23:02;;;;;;;5.10;2.30;;;;;;;27.96;32.78;99138.59;109376;1274;24517;-57
2022/06/09 09:25:39;;;;;;;6.20;2.50;;;;;;;27.91;33.48;99134.77;107952;1274;137974;-58
2022/06/09 09:28:27;;;;;;;4.80;2.40;;;;;;;27.87;33.64;99135.75;107967;1274;22413;-59
2022/06/09 09:31:15;;;;;;;6.00;2.50;;;;;;;27.82;32.99;99131.79;107939;1274;138525;-58
2022/06/09 09:33:44;;;;;;;3.20;2.50;;;;;;;27.72;33.05;99132.08;108003;1274;22532;-58
2022/06/09 09:36:35;;;;;;;4.70;2.60;;;;;;;27.63;32.82;99130.92;107957;1274;138694;-59
2022/06/09 09:39:08;;;;;;;4.20;2.60;;;;;;;27.54;33.36;99130.14;108064;1274;22391;-58
2022/06/09 09:41:37;;;;;;;3.10;2.00;;;;;;;27.47;33.84;99128.52;108058;1274;22475;-59
2022/06/09 09:44:22;;;;;;;6.80;2.30;;;;;;;27.43;34.44;99135.02;107919;1274;138185;-59
2022/06/09 09:46:55;;;;;;;7.30;2.70;;;;;;;27.43;34.84;99132.61;108061;1274;22458;-59
2022/06/09 09:49:36;;;;;;;6.10;2.50;;;;;;;27.47;34.54;99128.52;107854;1274;137803;-58
2022/06/09 09:52:04;;;;;;;6.30;2.00;;;;;;;27.53;34.47;99122.06;107894;1274;22387;-59
2022/06/09 09:54:38;;;;;;;5.80;1.90;;;;;;;27.58;33.99;99117.98;107903;1274;139518;-59
2022/06/09 09:57:20;;;;;;;9.40;2.50;;;;;;;27.66;34.02;99115.92;108001;1274;24752;-59
2022/06/09 09:59:49;;;;;;;3.20;1.90;;;;;;;27.71;34.06;99112.70;108035;1274;22437;-58
2022/06/09 10:08:39;;;;;;;4.10;2.10;;;;;;;27.72;34.35;99112.21;108185;1274;22454;-59
2022/06/09 10:14:00;;;;;;;6.30;2.10;;;;;;;27.71;34.12;99116.20;108052;1274;138058;-59
2022/06/09 10:16:29;;;;;;;10.10;2.40;;;;;;;27.69;33.91;99119.89;107992;1274;22534;-59
2022/06/09 10:19:13;;;;;;;7.40;2.20;;;;;;;27.63;33.99;99114.52;107886;1274;138912;-58
2022/06/09 10:22:00;;;;;;;2.90;2.20;;;;;;;27.56;34.09;99113.88;108041;1274;22397;-58
2022/06/09 10:24:44;;;;;;;9.30;2.30;;;;;;;27.50;34.78;99116.10;107941;1274;138624;-59
2022/06/09 10:27:11;;;;;;;5.30;2.10;;;;;;;27.48;35.48;99113.27;108016;1274;22405;-59
2022/06/09 10:30:02;;;;;;;6.00;1.90;;;;;;;27.51;34.77;99109.71;107975;1274;23621;-59
2022/06/09 10:32:54;;;;;;;2.30;1.90;;;;;;;27.55;34.58;99109.30;108075;1274;22444;-58
2022/06/09 10:35:35;;;;;;;2.20;1.70;;;;;;;27.57;34.43;99107.33;107991;1274;22447;-58
2022/06/09 10:38:36;;;;;;;2.30;1.90;;;;;;;27.58;34.62;99110.52;107790;1274;138899;-58
2022/06/09 10:41:04;;;;;;;4.40;2.30;;;;;;;27.57;34.48;99106.20;108101;1274;23521;-60
2022/06/09 10:43:45;;;;;;;10.30;1.90;;;;;;;27.56;34.55;99101.23;107982;1274;138215;-58
2022/06/09 10:46:31;;;;;;;4.10;2.10;;;;;;;27.59;35.18;99100.86;107903;1274;25042;-58
2022/06/09 10:55:35;;;;;;;2.30;1.80;;;;;;;27.77;34.03;99099.89;107551;1274;138591;-58
2022/06/09 10:58:23;;;;;;;4.30;1.80;;;;;;;27.79;33.99;99099.98;108038;1274;22444;-59
2022/06/09 11:00:50;;;;;;;2.20;1.90;;;;;;;27.81;34.06;99096.82;107824;1275;139090;-59
2022/06/09 11:03:20;;;;;;;2.60;1.90;;;;;;;27.82;34.00;99092.20;108012;1275;22418;-58
2022/06/09 11:06:04;;;;;;;7.90;2.10;;;;;;;27.81;33.75;99093.30;107938;1275;22497;-59
2022/06/09 11:08:50;;;;;;;4.80;1.50;;;;;;;27.76;33.91;99089.88;108009;1276;22481;-58
2022/06/09 11:11:30;;;;;;;6.60;2.70;;;;;;;27.69;33.94;99090.84;107810;1275;22414;-59
2022/06/09 11:14:15;;;;;;;4.50;2.20;;;;;;;27.62;34.88;99080.45;107106;1274;139159;-58
2022/06/09 11:16:45;;;;;;;3.70;1.80;;;;;;;27.56;34.78;99084.92;105271;1274;22698;-58
2022/06/09 11:19:30;;;;;;;3.30;2.00;;;;;;;27.60;34.44;99082.41;103773;1274;138072;-57
2022/06/09 11:21:57;;;;;;;4.20;2.00;;;;;;;27.65;34.29;99079.69;103933;1274;22652;-58
2022/06/09 11:24:37;;;;;;;2.30;1.70;;;;;;;27.71;34.17;99079.42;103747;1274;139236;-58
2022/06/09 11:27:26;;;;;;;3.50;2.20;;;;;;;27.77;34.18;99082.05;103853;1275;24905;-59
2022/06/09 11:30:12;;;;;;;4.30;2.10;;;;;;;27.84;34.57;99082.77;103565;1276;138585;-58
2022/06/09 11:32:53;;;;;;;11.10;2.80;;;;;;;27.87;34.20;99082.94;103815;1274;23065;-59
2022/06/09 11:35:30;;;;;;;3.50;2.20;;;;;;;27.87;33.71;99085.42;103763;1277;23394;-59
2022/06/09 11:38:17;;;;;;;;;;;;;;;27.86;34.05;99083.89;103729;1274;138174;-58
2022/06/09 11:41:03;;;;;;;9.90;2.30;;;;;;;27.81;34.72;99086.42;103751;1274;25446;-59
2022/06/09 11:43:59;;;;;;;4.60;2.20;;;;;;;27.75;34.76;99084.10;103462;1276;138946;-57
2022/06/09 11:46:31;;;;;;;3.30;2.10;;;;;;;27.69;34.93;99085.17;103977;1275;27313;-60
2022/06/09 11:49:00;;;;;;;13.70;2.60;;;;;;;27.62;34.43;99085.33;103819;1277;137798;-58
2022/06/09 11:51:28;;;;;;;14.30;2.90;;;;;;;27.58;34.61;99085.89;103900;1276;27556;-58
2022/06/09 11:53:56;;;;;;;9.30;2.80;;;;;;;27.52;35.53;99082.21;103658;1274;138623;-59
2022/06/09 11:56:33;;;;;;;7.30;2.20;;;;;;;27.48;35.51;99086.48;103911;1274;22572;-59
2022/06/09 11:59:02;;;;;;;8.70;2.00;;;;;;;27.45;35.60;99077.33;103995;1274;24987;-60
2022/06/09 12:01:29;;;;;;;5.20;2.10;;;;;;;27.46;36.27;99085.58;103872;1274;139596;-58
2022/06/09 12:04:12;;;;;;;8.70;2.40;;;;;;;27.50;36.00;99082.03;103818;1274;24236;-58
2022/06/09 12:07:04;;;;;;;6.90;2.50;;;;;;;27.60;35.29;99087.69;103677;1274;137707;-58
2022/06/09 12:09:50;;;;;;;4.50;2.20;;;;;;;27.70;35.50;99076.61;103780;1274;24789;-57
2022/06/09 12:12:31;;;;;;;4.50;2.10;;;;;;;27.82;35.86;99085.06;103788;1274;138985;-58